createdAt,value
2023-02-09T00:01:06.109Z,11.18
2023-02-09T00:03:34.089Z,13.63
2023-02-09T00:06:02.005Z,11.20
2023-02-09T00:08:31.155Z,15.43
2023-02-09T00:10:58.236Z,13.23
2023-02-09T00:13:25.664Z,11.23
2023-02-09T00:15:57.510Z,11.80
2023-02-09T00:18:25.739Z,11.73
2023-02-09T00:20:57.614Z,11.27
2023-02-09T00:23:25.042Z,13.85
2023-02-09T00:25:52.425Z,11.52
2023-02-09T00:28:19.832Z,13.68
2023-02-09T00:30:47.543Z,12.35
2023-02-09T00:33:14.862Z,11.93
2023-02-09T00:35:42.905Z,10.38
2023-02-09T00:38:11.391Z,12.60
2023-02-09T00:40:38.929Z,9.35
2023-02-09T00:43:06.258Z,11.85
2023-02-09T00:45:33.430Z,12.30
2023-02-09T00:48:01.606Z,15.05
2023-02-09T00:50:29.076Z,11.13
2023-02-09T00:52:56.133Z,11.25
2023-02-09T00:55:23.209Z,12.35
2023-02-09T00:57:50.259Z,10.50
2023-02-09T01:00:17.437Z,11.23
2023-02-09T01:02:46.231Z,14.52
2023-02-09T01:05:13.320Z,12.93
2023-02-09T01:07:40.504Z,10.32
2023-02-09T01:10:08.522Z,12.43
2023-02-09T01:12:35.830Z,10.00
2023-02-09T01:15:02.959Z,13.75
2023-02-09T01:17:30.077Z,10.82
2023-02-09T01:19:57.201Z,14.07
2023-02-09T01:22:24.310Z,10.50
2023-02-09T01:24:51.448Z,13.93
2023-02-09T01:27:18.909Z,11.32
2023-02-09T01:29:46.262Z,11.10
2023-02-09T01:32:13.402Z,18.20
2023-02-09T01:34:40.719Z,11.07
2023-02-09T01:37:08.067Z,10.93
2023-02-09T01:39:35.119Z,9.13
2023-02-09T01:42:03.544Z,9.43
2023-02-09T01:44:30.735Z,7.95
2023-02-09T01:46:57.787Z,12.37
2023-02-09T01:49:26.838Z,5.13
2023-02-09T01:52:03.693Z,8.20
2023-02-09T01:54:40.227Z,10.05
2023-02-09T01:57:11.433Z,13.38
2023-02-09T01:59:40.712Z,6.73
2023-02-09T02:02:09.204Z,13.32
2023-02-09T02:04:37.131Z,14.15
2023-02-09T02:07:12.929Z,14.60
2023-02-09T02:09:40.707Z,10.50
2023-02-09T02:12:07.839Z,12.67
2023-02-09T02:14:39.682Z,13.40
2023-02-09T02:17:44.617Z,13.20
2023-02-09T02:20:48.878Z,16.08
2023-02-09T02:23:23.908Z,11.68
2023-02-09T02:25:53.974Z,9.30
2023-02-09T02:28:34.262Z,12.48
2023-02-09T02:31:14.965Z,11.55
2023-02-09T02:33:48.152Z,12.32
2023-02-09T02:36:31.876Z,11.75
2023-02-09T02:39:51.179Z,13.83
2023-02-09T02:42:43.042Z,12.23
2023-02-09T02:45:42.033Z,12.25
2023-02-09T02:48:21.089Z,14.73
2023-02-09T02:51:24.282Z,12.15
2023-02-09T02:53:54.941Z,14.10
2023-02-09T02:56:29.626Z,11.80
2023-02-09T02:58:59.874Z,12.75
2023-02-09T03:01:30.751Z,14.18
2023-02-09T03:03:58.574Z,15.73
2023-02-09T03:06:25.715Z,11.80
2023-02-09T03:08:57.021Z,14.98
2023-02-09T03:11:28.404Z,12.35
2023-02-09T03:14:19.777Z,15.07
2023-02-09T03:17:25.810Z,13.68
2023-02-09T03:19:55.624Z,11.47
2023-02-09T03:22:31.826Z,13.40
2023-02-09T03:25:04.849Z,11.88
2023-02-09T03:27:40.778Z,13.10
2023-02-09T03:30:11.573Z,11.52
2023-02-09T03:32:43.324Z,11.63
2023-02-09T03:35:12.555Z,13.65
2023-02-09T03:37:39.711Z,13.60
2023-02-09T03:40:07.180Z,14.55
2023-02-09T03:42:34.448Z,12.07
2023-02-09T03:45:01.498Z,11.00
2023-02-09T03:47:30.726Z,11.35
2023-02-09T03:49:58.352Z,13.23
2023-02-09T03:52:25.587Z,14.32
2023-02-09T03:54:52.819Z,14.23
2023-02-09T03:57:19.957Z,12.73
2023-02-09T03:59:46.970Z,10.02
2023-02-09T04:02:14.102Z,12.75
2023-02-09T04:04:41.175Z,12.05
2023-02-09T04:07:08.459Z,11.93
2023-02-09T04:09:37.441Z,15.00
2023-02-09T04:12:04.723Z,11.93
2023-02-09T04:14:31.784Z,13.98
2023-02-09T04:16:58.872Z,12.55
2023-02-09T04:19:26.172Z,14.73
2023-02-09T04:21:53.268Z,11.87
2023-02-09T04:24:22.072Z,9.82
2023-02-09T04:26:49.201Z,15.35
2023-02-09T04:29:16.371Z,14.07
2023-02-09T04:31:43.468Z,12.30
2023-02-09T04:34:10.593Z,14.70
2023-02-09T04:36:37.656Z,11.27
2023-02-09T04:39:04.769Z,13.25
2023-02-09T04:41:31.884Z,15.60
2023-02-09T04:43:59.040Z,12.18
2023-02-09T04:46:26.129Z,14.60
2023-02-09T04:48:53.297Z,16.77
2023-02-09T04:51:20.368Z,12.60
2023-02-09T04:53:47.597Z,13.00
2023-02-09T04:56:15.503Z,13.30
2023-02-09T04:59:01.823Z,15.90
2023-02-09T05:01:29.565Z,16.42
2023-02-09T05:03:56.764Z,13.50
2023-02-09T05:06:24.564Z,14.95
2023-02-09T05:08:51.706Z,20.95
2023-02-09T05:11:18.743Z,13.80
2023-02-09T05:13:45.815Z,14.73
2023-02-09T05:16:15.540Z,13.73
2023-02-09T05:18:42.727Z,13.25
2023-02-09T05:21:09.819Z,13.05
2023-02-09T05:23:36.880Z,13.33
2023-02-09T05:26:04.047Z,19.10
2023-02-09T05:28:31.163Z,11.85
2023-02-09T05:30:58.331Z,14.05
2023-02-09T05:33:26.254Z,11.95
2023-02-09T05:35:55.689Z,17.07
2023-02-09T05:38:23.192Z,15.13
2023-02-09T05:40:50.961Z,12.63
2023-02-09T05:43:18.173Z,15.02
2023-02-09T05:45:45.969Z,14.13
2023-02-09T05:48:13.094Z,15.00
2023-02-09T05:50:40.138Z,19.40
2023-02-09T05:53:08.262Z,12.43
2023-02-09T05:55:35.307Z,14.07
2023-02-09T05:58:02.357Z,18.02
2023-02-09T06:00:29.899Z,16.77
2023-02-09T06:02:57.132Z,18.80
2023-02-09T06:05:24.713Z,15.75
2023-02-09T06:07:51.795Z,14.15
2023-02-09T06:10:18.990Z,15.68
2023-02-09T06:12:46.160Z,15.10
2023-02-09T06:15:16.303Z,14.95
2023-02-09T06:17:43.867Z,17.38
2023-02-09T06:20:11.627Z,14.15
2023-02-09T06:22:38.778Z,16.67
2023-02-09T06:25:06.155Z,19.03
2023-02-09T06:27:33.412Z,15.77
2023-02-09T06:30:00.493Z,17.02
2023-02-09T06:32:27.581Z,15.15
2023-02-09T06:34:54.687Z,17.52
2023-02-09T06:37:21.737Z,13.43
2023-02-09T06:39:48.813Z,14.63
2023-02-09T06:42:15.894Z,18.67
2023-02-09T06:44:42.957Z,20.83
2023-02-09T06:47:09.989Z,13.77
2023-02-09T06:49:37.055Z,16.43
2023-02-09T06:52:04.403Z,15.32
2023-02-09T06:54:31.484Z,17.75
2023-02-09T06:56:58.669Z,14.38
2023-02-09T06:59:25.744Z,14.63
2023-02-09T07:01:54.957Z,15.80
2023-02-09T07:04:22.559Z,17.45
2023-02-09T07:06:49.653Z,14.25
2023-02-09T07:09:16.766Z,12.65
2023-02-09T07:11:44.096Z,21.00
2023-02-09T07:14:11.236Z,22.13
2023-02-09T07:16:38.354Z,22.92
2023-02-09T07:19:05.381Z,19.50
2023-02-09T07:21:32.427Z,15.55
2023-02-09T07:23:59.491Z,16.67
2023-02-09T07:26:26.566Z,16.77
2023-02-09T07:28:53.696Z,18.38
2023-02-09T07:31:20.908Z,20.40
2023-02-09T07:33:48.159Z,18.65
2023-02-09T07:36:16.472Z,18.27
2023-02-09T07:38:43.876Z,19.00
2023-02-09T07:41:15.216Z,16.58
2023-02-09T07:43:42.408Z,18.95
2023-02-09T07:46:10.322Z,16.20
2023-02-09T07:48:37.917Z,19.00
2023-02-09T07:51:05.668Z,22.37
2023-02-09T07:53:33.902Z,22.75
2023-02-09T07:56:01.107Z,21.98
2023-02-09T07:58:28.131Z,19.30
2023-02-09T08:00:55.176Z,19.73
2023-02-09T08:03:23.262Z,17.50
2023-02-09T08:05:54.524Z,20.38
2023-02-09T08:08:21.580Z,18.48
2023-02-09T08:10:51.641Z,20.92
2023-02-09T08:13:18.755Z,18.95
2023-02-09T08:15:55.693Z,16.33
2023-02-09T08:18:27.403Z,17.30
2023-02-09T08:20:54.593Z,20.33
2023-02-09T08:23:33.761Z,17.17
2023-02-09T08:26:05.231Z,19.85
2023-02-09T08:28:43.548Z,16.03
2023-02-09T08:31:12.475Z,18.95
2023-02-09T08:33:40.121Z,22.40
2023-02-09T08:36:08.123Z,15.85
2023-02-09T08:38:35.651Z,16.73
2023-02-09T08:41:07.316Z,13.80
2023-02-09T08:43:34.532Z,10.70
2023-02-09T08:46:10.430Z,16.45
2023-02-09T08:48:40.499Z,17.88
2023-02-09T08:51:09.067Z,11.85
2023-02-09T08:53:36.228Z,12.97
2023-02-09T08:56:03.711Z,12.40
2023-02-09T08:58:32.048Z,13.63
2023-02-09T09:01:00.035Z,15.65
2023-02-09T09:03:31.366Z,13.82
2023-02-09T09:06:00.795Z,12.83
2023-02-09T09:08:28.342Z,15.13
2023-02-09T09:10:55.700Z,11.77
2023-02-09T09:13:24.415Z,14.05
2023-02-09T09:15:52.732Z,14.45
2023-02-09T09:18:19.917Z,11.27
2023-02-09T09:20:47.491Z,10.00
2023-02-09T09:23:14.987Z,9.55
2023-02-09T09:25:42.224Z,10.32
2023-02-09T09:28:09.787Z,9.88
2023-02-09T09:30:37.222Z,10.13
2023-02-09T09:33:04.625Z,12.18
2023-02-09T09:35:31.869Z,9.48
2023-02-09T09:37:59.116Z,8.70
2023-02-09T09:40:32.386Z,8.73
2023-02-09T09:43:04.932Z,10.83
2023-02-09T09:45:35.144Z,10.25
2023-02-09T09:48:02.536Z,10.73
2023-02-09T09:50:39.341Z,6.10
2023-02-09T09:53:33.519Z,10.15
2023-02-09T09:56:07.457Z,11.13
2023-02-09T09:58:34.901Z,8.05
2023-02-09T10:01:02.040Z,8.30
2023-02-09T10:03:29.124Z,6.20
2023-02-09T10:06:01.433Z,9.70
2023-02-09T10:08:34.073Z,6.53
2023-02-09T10:11:05.522Z,11.73
2023-02-09T10:13:37.440Z,11.95
2023-02-09T10:16:10.829Z,7.30
2023-02-09T10:18:38.233Z,9.35
2023-02-09T10:21:07.621Z,10.13
2023-02-09T10:23:44.939Z,10.20
2023-02-09T10:26:11.859Z,9.57
2023-02-09T10:28:42.319Z,10.90
2023-02-09T10:31:20.663Z,11.30
2023-02-09T10:33:52.047Z,7.53
2023-02-09T10:36:28.948Z,13.57
2023-02-09T10:39:24.034Z,12.77
2023-02-09T10:41:53.477Z,10.15
2023-02-09T10:44:28.785Z,9.57
2023-02-09T10:47:20.600Z,10.40
2023-02-09T10:50:00.991Z,8.90
2023-02-09T10:52:34.497Z,9.80
2023-02-09T10:55:19.738Z,10.77
2023-02-09T10:57:46.937Z,11.60
2023-02-09T11:00:16.882Z,12.57
2023-02-09T11:03:01.524Z,12.50
2023-02-09T11:05:32.503Z,12.30
2023-02-09T11:08:11.506Z,11.02
2023-02-09T11:11:01.125Z,11.93
2023-02-09T11:13:32.106Z,11.20
2023-02-09T11:16:32.069Z,12.43
2023-02-09T11:19:18.447Z,16.35
2023-02-09T11:22:01.321Z,8.90
2023-02-09T11:24:38.261Z,10.48
2023-02-09T11:27:39.341Z,11.17
2023-02-09T11:30:30.446Z,14.93
2023-02-09T11:33:05.085Z,10.50
2023-02-09T11:35:58.551Z,10.70
2023-02-09T11:38:40.377Z,8.30
2023-02-09T11:41:32.344Z,10.53
2023-02-09T11:44:01.335Z,10.93
2023-02-09T11:46:31.636Z,11.90
2023-02-09T11:49:02.663Z,11.10
2023-02-09T11:51:32.112Z,20.13
2023-02-09T11:54:22.579Z,10.70
2023-02-09T11:56:52.220Z,10.18
2023-02-09T11:59:26.370Z,12.95
2023-02-09T12:02:05.598Z,9.35
2023-02-09T12:04:43.910Z,16.27
2023-02-09T12:07:25.153Z,12.30
2023-02-09T12:10:23.992Z,16.77
2023-02-09T12:12:59.418Z,7.63
2023-02-09T12:15:32.105Z,13.75
2023-02-09T12:18:03.250Z,12.65
2023-02-09T12:20:36.344Z,12.67
2023-02-09T12:23:10.904Z,13.05
2023-02-09T12:25:51.276Z,10.00
2023-02-09T12:28:24.438Z,10.00
2023-02-09T12:30:51.438Z,12.02
2023-02-09T12:33:27.887Z,10.20
2023-02-09T12:36:31.159Z,13.88
2023-02-09T12:39:07.475Z,13.93
2023-02-09T12:41:34.443Z,11.00
2023-02-09T12:44:10.479Z,12.70
2023-02-09T12:46:52.972Z,13.10
2023-02-09T12:49:29.225Z,12.45
2023-02-09T12:52:02.265Z,10.98
2023-02-09T12:54:51.677Z,11.48
2023-02-09T12:57:19.269Z,14.18
2023-02-09T12:59:52.573Z,12.60
2023-02-09T13:02:50.155Z,16.88
2023-02-09T13:05:18.184Z,11.32
2023-02-09T13:07:57.014Z,13.70
2023-02-09T13:10:51.427Z,12.30
2023-02-09T13:13:34.329Z,12.63
2023-02-09T13:16:02.584Z,14.20
2023-02-09T13:18:46.685Z,9.35
2023-02-09T13:21:19.248Z,15.30
2023-02-09T13:24:00.306Z,14.68
2023-02-09T13:26:31.454Z,16.70
2023-02-09T13:29:21.740Z,11.68
2023-02-09T13:32:09.998Z,12.98
2023-02-09T13:34:46.558Z,14.57
2023-02-09T13:37:21.392Z,9.55
2023-02-09T13:39:57.705Z,14.57
2023-02-09T13:42:27.037Z,10.43
2023-02-09T13:44:56.407Z,23.50
2023-02-09T13:47:23.961Z,21.15
2023-02-09T13:50:03.476Z,10.40
2023-02-09T13:52:38.405Z,10.70
2023-02-09T13:55:23.857Z,12.63
2023-02-09T13:58:09.390Z,9.93
2023-02-09T14:00:42.228Z,9.75
2023-02-09T14:03:15.612Z,10.35
2023-02-09T14:05:59.208Z,10.47
2023-02-09T14:08:27.015Z,8.80
2023-02-09T14:10:59.397Z,7.63
2023-02-09T14:13:30.519Z,9.68
2023-02-09T14:16:08.579Z,10.00
2023-02-09T14:18:52.112Z,10.50
2023-02-09T14:21:23.741Z,9.50
2023-02-09T14:23:57.991Z,9.40
2023-02-09T14:26:27.520Z,8.73
2023-02-09T14:29:05.339Z,15.30
2023-02-09T14:31:36.168Z,7.80
2023-02-09T14:34:03.294Z,7.55
2023-02-09T14:36:32.466Z,11.15
2023-02-09T14:39:16.573Z,6.68
2023-02-09T14:42:00.225Z,7.78
2023-02-09T14:44:27.652Z,11.20
2023-02-09T14:46:57.256Z,8.93
2023-02-09T14:49:25.816Z,9.38
2023-02-09T14:52:13.595Z,7.57
2023-02-09T14:54:46.915Z,7.38
2023-02-09T14:57:14.051Z,9.53
2023-02-09T14:59:41.088Z,9.85
2023-02-09T15:02:21.334Z,8.15
2023-02-09T15:04:51.764Z,9.60
2023-02-09T15:07:21.740Z,12.70
2023-02-09T15:09:49.361Z,8.57
2023-02-09T15:12:22.033Z,11.55
2023-02-09T15:14:49.693Z,10.10
2023-02-09T15:17:19.928Z,8.82
2023-02-09T15:19:47.392Z,10.88
2023-02-09T15:22:16.159Z,9.77
2023-02-09T15:24:44.930Z,8.48
2023-02-09T15:27:17.296Z,9.45
2023-02-09T15:29:44.456Z,10.93
2023-02-09T15:32:15.894Z,7.85
2023-02-09T15:34:43.477Z,11.23
2023-02-09T15:37:35.001Z,10.60
2023-02-09T15:40:13.558Z,10.38
2023-02-09T15:43:00.630Z,10.93
2023-02-09T15:45:47.930Z,12.07
2023-02-09T15:48:15.065Z,12.63
2023-02-09T15:50:44.846Z,12.57
2023-02-09T15:53:14.917Z,12.43
2023-02-09T15:55:42.988Z,14.48
2023-02-09T15:58:15.282Z,13.52
2023-02-09T16:00:42.780Z,10.63
2023-02-09T16:03:17.859Z,12.65
2023-02-09T16:05:46.065Z,10.73
2023-02-09T16:08:22.274Z,12.43
2023-02-09T16:10:49.861Z,10.30
2023-02-09T16:13:18.434Z,14.90
2023-02-09T16:15:46.413Z,14.02
2023-02-09T16:18:14.068Z,10.95
2023-02-09T16:20:46.834Z,12.23
2023-02-09T16:23:20.898Z,12.23
2023-02-09T16:25:50.406Z,14.13
2023-02-09T16:28:18.051Z,13.02
2023-02-09T16:30:54.784Z,13.38
2023-02-09T16:33:23.011Z,15.23
2023-02-09T16:35:55.376Z,14.57
2023-02-09T16:38:23.704Z,10.57
2023-02-09T16:40:51.291Z,16.58
2023-02-09T16:43:19.231Z,11.85
2023-02-09T16:46:00.911Z,15.38
2023-02-09T16:48:31.479Z,13.77
2023-02-09T16:50:58.611Z,12.83
2023-02-09T16:53:32.789Z,14.95
2023-02-09T16:56:01.431Z,13.30
2023-02-09T16:58:28.898Z,11.88
2023-02-09T17:00:56.723Z,13.00
2023-02-09T17:03:32.512Z,16.23
2023-02-09T17:06:01.459Z,15.52
2023-02-09T17:08:33.267Z,12.93
2023-02-09T17:11:02.902Z,15.20
2023-02-09T17:13:34.079Z,14.65
2023-02-09T17:16:05.172Z,14.93
2023-02-09T17:18:39.321Z,18.50
2023-02-09T17:21:25.971Z,18.67
2023-02-09T17:23:53.584Z,18.52
2023-02-09T17:26:21.138Z,19.70
2023-02-09T17:28:48.221Z,17.97
2023-02-09T17:31:18.172Z,17.77
2023-02-09T17:33:47.574Z,18.67
2023-02-09T17:36:31.122Z,15.98
2023-02-09T17:38:59.421Z,18.90
2023-02-09T17:41:38.423Z,17.90
2023-02-09T17:44:46.021Z,16.83
2023-02-09T17:47:12.930Z,16.63
2023-02-09T17:49:39.996Z,17.42
2023-02-09T17:52:07.105Z,17.15
2023-02-09T17:54:34.164Z,22.10
2023-02-09T17:57:01.350Z,20.23
2023-02-09T17:59:28.394Z,20.08
2023-02-09T18:01:56.974Z,20.13
2023-02-09T18:04:26.860Z,25.00
2023-02-09T18:06:57.276Z,26.00
2023-02-09T18:09:24.903Z,22.85
2023-02-09T18:11:52.143Z,24.48
2023-02-09T18:14:20.512Z,26.52
2023-02-09T18:16:49.074Z,23.27
2023-02-09T18:19:16.810Z,22.90
2023-02-09T18:21:49.688Z,26.40
2023-02-09T18:24:17.921Z,22.55
2023-02-09T18:26:46.860Z,26.15
2023-02-09T18:29:14.540Z,23.50
2023-02-09T18:31:41.676Z,23.90
2023-02-09T18:34:09.558Z,25.25
2023-02-09T18:36:37.003Z,24.15
2023-02-09T18:39:04.093Z,22.25
2023-02-09T18:41:31.263Z,25.70
2023-02-09T18:43:59.342Z,24.40
2023-02-09T18:46:27.081Z,27.85
2023-02-09T18:48:54.955Z,28.08
2023-02-09T18:51:22.204Z,21.92
2023-02-09T18:53:50.135Z,27.48
2023-02-09T18:56:21.902Z,22.20
2023-02-09T18:58:52.487Z,23.85
2023-02-09T19:01:21.682Z,22.17
2023-02-09T19:03:52.970Z,21.65
2023-02-09T19:06:21.449Z,18.15
2023-02-09T19:08:50.229Z,19.47
2023-02-09T19:11:21.029Z,18.88
2023-02-09T19:14:06.825Z,21.55
2023-02-09T19:16:35.092Z,21.08
2023-02-09T19:19:02.141Z,21.05
2023-02-09T19:21:29.266Z,18.67
2023-02-09T19:23:56.361Z,23.55
2023-02-09T19:26:23.412Z,20.50
2023-02-09T19:28:50.473Z,20.48
2023-02-09T19:31:17.891Z,20.77
2023-02-09T19:33:45.041Z,21.50
2023-02-09T19:36:12.377Z,21.80
2023-02-09T19:38:39.511Z,21.63
2023-02-09T19:41:12.067Z,22.05
2023-02-09T19:43:39.892Z,22.30
2023-02-09T19:46:10.053Z,23.30
2023-02-09T19:48:40.047Z,20.83
2023-02-09T19:51:07.799Z,18.27
2023-02-09T19:53:35.352Z,22.35
2023-02-09T19:56:02.412Z,22.50
2023-02-09T19:58:30.528Z,23.67
2023-02-09T20:00:57.715Z,22.58
2023-02-09T20:03:25.278Z,19.60
2023-02-09T20:05:52.561Z,20.30
2023-02-09T20:08:20.329Z,19.70
2023-02-09T20:10:47.741Z,19.30
2023-02-09T20:13:15.326Z,21.73
2023-02-09T20:15:43.437Z,21.52
2023-02-09T20:18:11.473Z,22.27
2023-02-09T20:20:41.146Z,22.80
2023-02-09T20:23:08.851Z,19.60
2023-02-09T20:25:35.919Z,27.50
2023-02-09T20:28:03.230Z,19.55
2023-02-09T20:30:30.308Z,16.35
2023-02-09T20:32:57.355Z,21.38
2023-02-09T20:35:24.417Z,19.87
2023-02-09T20:37:53.009Z,16.55
2023-02-09T20:40:20.055Z,17.50
2023-02-09T20:43:07.427Z,24.27
2023-02-09T20:45:53.224Z,18.50
2023-02-09T20:48:20.371Z,17.87
2023-02-09T20:50:47.765Z,18.40
2023-02-09T20:53:15.052Z,16.52
2023-02-09T20:55:42.861Z,19.48
2023-02-09T20:58:13.377Z,17.80
2023-02-09T21:00:42.024Z,18.67
2023-02-09T21:03:09.176Z,20.30
2023-02-09T21:05:36.214Z,19.80
2023-02-09T21:08:04.320Z,23.35
2023-02-09T21:10:35.752Z,18.55
2023-02-09T21:13:04.788Z,18.07
2023-02-09T21:15:32.107Z,15.50
2023-02-09T21:17:59.255Z,15.13
2023-02-09T21:20:26.277Z,17.67
2023-02-09T21:22:53.505Z,20.77
2023-02-09T21:25:20.710Z,15.97
2023-02-09T21:27:47.836Z,15.85
2023-02-09T21:30:16.411Z,12.57
2023-02-09T21:32:43.558Z,14.30
2023-02-09T21:35:10.924Z,17.15
2023-02-09T21:37:38.926Z,12.47
2023-02-09T21:40:06.805Z,14.02
2023-02-09T21:42:35.673Z,16.63
2023-02-09T21:45:02.948Z,13.13
2023-02-09T21:47:32.202Z,11.75
2023-02-09T21:49:59.646Z,12.07
2023-02-09T21:52:27.810Z,13.07
2023-02-09T21:54:54.957Z,13.75
2023-02-09T21:57:22.722Z,15.38
2023-02-09T21:59:49.867Z,15.05
2023-02-09T22:02:17.691Z,13.37
2023-02-09T22:04:46.614Z,11.50
2023-02-09T22:07:14.277Z,19.23
2023-02-09T22:09:41.560Z,14.70
2023-02-09T22:12:08.657Z,14.73
2023-02-09T22:14:35.797Z,14.13
2023-02-09T22:17:03.131Z,15.80
2023-02-09T22:19:30.384Z,14.23
2023-02-09T22:21:58.034Z,13.82
2023-02-09T22:24:25.350Z,14.38
2023-02-09T22:26:52.651Z,13.93
2023-02-09T22:29:19.781Z,15.10
2023-02-09T22:31:47.379Z,14.05
2023-02-09T22:34:14.501Z,13.48
2023-02-09T22:36:41.583Z,12.30
2023-02-09T22:39:08.870Z,14.67
2023-02-09T22:41:36.428Z,15.15
2023-02-09T22:44:06.683Z,17.23
2023-02-09T22:46:38.958Z,17.27
2023-02-09T22:49:08.479Z,13.55
2023-02-09T22:51:36.136Z,14.80
2023-02-09T22:54:04.125Z,18.60
2023-02-09T22:56:31.632Z,15.65
2023-02-09T22:58:59.940Z,15.35
2023-02-09T23:01:28.049Z,16.10
2023-02-09T23:03:55.457Z,15.03
2023-02-09T23:06:24.543Z,16.98
2023-02-09T23:08:53.770Z,18.33
2023-02-09T23:11:21.017Z,15.75
2023-02-09T23:13:51.068Z,16.20
2023-02-09T23:16:23.980Z,18.10
2023-02-09T23:18:54.686Z,17.77
2023-02-09T23:21:24.949Z,15.82
2023-02-09T23:23:52.448Z,15.10
2023-02-09T23:26:20.878Z,16.63
2023-02-09T23:28:48.570Z,16.13
2023-02-09T23:31:17.752Z,18.63
2023-02-09T23:33:45.306Z,18.20
2023-02-09T23:36:23.772Z,20.23
2023-02-09T23:38:55.331Z,15.85
2023-02-09T23:41:22.511Z,16.23
2023-02-09T23:43:50.036Z,13.40
2023-02-09T23:46:22.351Z,15.63
2023-02-09T23:48:50.328Z,14.45
2023-02-09T23:51:19.709Z,14.45
2023-02-09T23:53:47.834Z,16.07
2023-02-09T23:56:16.363Z,18.48
2023-02-09T23:58:45.972Z,16.52
